createdAt,value
2023-01-18T00:00:32.060Z,84.31
2023-01-18T00:04:35.265Z,84.36
2023-01-18T00:08:40.301Z,84.14
2023-01-18T00:12:44.731Z,83.79
2023-01-18T00:16:47.738Z,83.68
2023-01-18T00:20:50.752Z,83.68
2023-01-18T00:24:53.924Z,83.55
2023-01-18T00:28:58.372Z,83.39
2023-01-18T00:33:01.731Z,83.34
2023-01-18T00:37:04.897Z,83.48
2023-01-18T00:41:07.884Z,83.59
2023-01-18T00:45:13.230Z,83.48
2023-01-18T00:49:16.253Z,83.34
2023-01-18T00:53:19.281Z,83.47
2023-01-18T00:57:22.303Z,83.45
2023-01-18T01:01:27.094Z,83.31
2023-01-18T01:05:48.226Z,83.44
2023-01-18T01:09:51.333Z,83.71
2023-01-18T01:14:11.628Z,83.57
2023-01-18T01:18:33.399Z,82.98
2023-01-18T01:22:53.616Z,82.98
2023-01-18T01:26:56.802Z,82.83
2023-01-18T01:31:00.561Z,82.86
2023-01-18T01:35:05.608Z,83.02
2023-01-18T01:39:11.068Z,82.92
2023-01-18T01:43:14.572Z,83.37
2023-01-18T01:47:35.989Z,83.74
2023-01-18T01:51:42.827Z,84.09
2023-01-18T01:55:46.814Z,84.03
2023-01-18T01:59:54.766Z,84.24
2023-01-18T02:04:01.336Z,84.13
2023-01-18T02:08:11.339Z,84.10
2023-01-18T02:12:15.169Z,84.01
2023-01-18T02:16:24.691Z,84.38
2023-01-18T02:21:15.292Z,84.22
2023-01-18T02:25:51.104Z,84.36
2023-01-18T02:30:21.905Z,84.47
2023-01-18T02:34:34.727Z,84.48
2023-01-18T02:38:44.447Z,83.80
2023-01-18T02:43:06.418Z,83.62
2023-01-18T02:47:11.494Z,83.74
2023-01-18T02:51:14.506Z,83.70
2023-01-18T02:55:26.755Z,83.63
2023-01-18T02:59:35.028Z,83.86
2023-01-18T03:03:42.497Z,84.21
2023-01-18T03:07:54.302Z,84.07
2023-01-18T03:12:02.519Z,84.10
2023-01-18T03:16:10.545Z,84.42
2023-01-18T03:20:18.801Z,83.98
2023-01-18T03:24:23.642Z,84.05
2023-01-18T03:28:48.573Z,84.13
2023-01-18T03:33:09.415Z,83.83
2023-01-18T03:37:18.173Z,84.19
2023-01-18T03:41:23.323Z,84.16
2023-01-18T03:45:31.017Z,84.39
2023-01-18T03:49:36.110Z,84.16
2023-01-18T03:53:43.797Z,84.45
2023-01-18T03:57:51.224Z,84.26
2023-01-18T04:01:54.305Z,84.19
2023-01-18T04:05:58.647Z,84.03
2023-01-18T04:10:03.814Z,83.98
2023-01-18T04:14:07.053Z,84.16
2023-01-18T04:18:10.210Z,84.15
2023-01-18T04:22:13.970Z,84.02
2023-01-18T04:26:19.403Z,84.22
2023-01-18T04:30:22.674Z,84.24
2023-01-18T04:34:26.058Z,84.33
2023-01-18T04:38:29.374Z,84.36
2023-01-18T04:42:34.100Z,84.55
2023-01-18T04:46:38.211Z,84.15
2023-01-18T04:50:45.561Z,84.24
2023-01-18T04:54:48.609Z,84.18
2023-01-18T04:58:55.520Z,84.34
2023-01-18T05:02:58.915Z,84.36
2023-01-18T05:07:02.375Z,84.47
2023-01-18T05:11:07.674Z,84.33
2023-01-18T05:15:12.591Z,84.56
2023-01-18T05:19:16.291Z,84.34
2023-01-18T05:23:19.394Z,84.21
2023-01-18T05:27:22.635Z,84.27
2023-01-18T05:31:27.144Z,84.67
2023-01-18T05:35:30.362Z,84.67
2023-01-18T05:39:33.504Z,84.80
2023-01-18T05:43:38.268Z,84.56
2023-01-18T05:47:42.887Z,84.68
2023-01-18T05:51:45.934Z,84.41
2023-01-18T05:55:56.082Z,84.52
2023-01-18T05:59:59.855Z,84.41
2023-01-18T06:04:04.268Z,84.49
2023-01-18T06:08:07.361Z,84.58
2023-01-18T06:12:10.621Z,84.58
2023-01-18T06:16:13.740Z,84.39
2023-01-18T06:20:18.552Z,84.45
2023-01-18T06:24:21.740Z,84.52
2023-01-18T06:28:26.142Z,84.39
2023-01-18T06:32:29.891Z,84.49
2023-01-18T06:36:34.463Z,84.60
2023-01-18T06:40:37.570Z,84.49
2023-01-18T06:44:41.125Z,84.46
2023-01-18T06:48:44.176Z,84.56
2023-01-18T06:52:48.615Z,84.81
2023-01-18T06:56:51.837Z,84.75
2023-01-18T07:00:59.412Z,84.80
2023-01-18T07:05:03.034Z,84.76
2023-01-18T07:09:09.408Z,84.85
2023-01-18T07:13:12.670Z,84.75
2023-01-18T07:17:16.140Z,84.71
2023-01-18T07:21:22.864Z,84.78
2023-01-18T07:25:27.708Z,84.71
2023-01-18T07:29:30.937Z,84.71
2023-01-18T07:33:33.984Z,84.65
2023-01-18T07:37:38.660Z,84.28
2023-01-18T07:41:43.236Z,84.32
2023-01-18T07:45:54.649Z,84.03
2023-01-18T07:49:57.748Z,84.02
2023-01-18T07:54:00.794Z,83.85
2023-01-18T07:58:05.288Z,83.71
2023-01-18T08:02:12.469Z,83.91
2023-01-18T08:06:17.815Z,84.28
2023-01-18T08:10:21.409Z,83.95
2023-01-18T08:14:26.073Z,84.32
2023-01-18T08:18:29.292Z,84.54
2023-01-18T08:22:32.392Z,84.97
2023-01-18T08:26:35.617Z,85.13
2023-01-18T08:30:41.780Z,85.16
2023-01-18T08:34:44.901Z,84.85
2023-01-18T08:38:50.340Z,84.99
2023-01-18T08:42:57.787Z,84.88
2023-01-18T08:47:03.367Z,85.21
2023-01-18T08:51:07.094Z,85.17
2023-01-18T08:55:11.042Z,84.76
2023-01-18T08:59:14.110Z,84.99
2023-01-18T09:03:20.285Z,84.65
2023-01-18T09:07:23.441Z,84.52
2023-01-18T09:11:26.547Z,84.35
2023-01-18T09:15:30.187Z,84.37
2023-01-18T09:19:34.606Z,84.26
2023-01-18T09:23:40.016Z,84.09
2023-01-18T09:27:43.342Z,84.06
2023-01-18T09:31:46.948Z,83.12
2023-01-18T09:35:51.378Z,82.00
2023-01-18T09:39:57.941Z,81.33
2023-01-18T09:44:04.117Z,80.97
2023-01-18T09:48:12.543Z,79.55
2023-01-18T09:52:26.206Z,79.64
2023-01-18T09:56:39.396Z,78.28
2023-01-18T10:00:46.409Z,76.57
2023-01-18T10:04:53.492Z,74.86
2023-01-18T10:09:04.406Z,74.93
2023-01-18T10:13:28.117Z,74.88
2023-01-18T10:17:37.061Z,75.28
2023-01-18T10:21:50.727Z,75.31
2023-01-18T10:25:57.571Z,73.77
2023-01-18T10:30:14.249Z,73.14
2023-01-18T10:34:20.884Z,71.58
2023-01-18T10:38:27.256Z,71.73
2023-01-18T10:42:40.695Z,70.85
2023-01-18T10:46:44.487Z,71.59
2023-01-18T10:50:52.301Z,70.95
2023-01-18T10:55:01.315Z,70.47
2023-01-18T10:59:05.934Z,70.60
2023-01-18T11:03:15.877Z,70.02
2023-01-18T11:07:26.397Z,70.17
2023-01-18T11:11:45.524Z,69.70
2023-01-18T11:15:50.776Z,69.84
2023-01-18T11:20:06.577Z,68.66
2023-01-18T11:24:15.826Z,69.31
2023-01-18T11:28:21.340Z,68.69
2023-01-18T11:32:27.939Z,68.80
2023-01-18T11:36:37.337Z,70.33
2023-01-18T11:40:40.370Z,71.52
2023-01-18T11:44:48.370Z,72.62
2023-01-18T11:48:58.998Z,73.04
2023-01-18T11:53:10.535Z,73.07
2023-01-18T11:57:14.481Z,73.52
2023-01-18T12:01:52.499Z,73.76
2023-01-18T12:06:03.900Z,73.89
2023-01-18T12:10:13.969Z,73.96
2023-01-18T12:14:36.203Z,73.56
2023-01-18T12:19:07.844Z,73.39
2023-01-18T12:23:51.783Z,72.49
2023-01-18T12:28:03.159Z,70.67
2023-01-18T12:32:20.548Z,68.30
2023-01-18T12:36:46.129Z,67.53
2023-01-18T12:41:03.241Z,68.02
2023-01-18T12:45:18.771Z,66.62
2023-01-18T12:49:23.222Z,66.54
2023-01-18T12:53:37.824Z,65.15
2023-01-18T12:57:42.375Z,65.67
2023-01-18T13:01:51.785Z,64.74
2023-01-18T13:05:58.364Z,64.33
2023-01-18T13:10:02.133Z,63.41
2023-01-18T13:14:12.557Z,63.46
2023-01-18T13:18:22.561Z,62.46
2023-01-18T13:22:31.698Z,62.97
2023-01-18T13:26:36.036Z,62.81
2023-01-18T13:30:52.679Z,62.77
2023-01-18T13:35:18.707Z,62.46
2023-01-18T13:39:24.517Z,62.43
2023-01-18T13:44:02.766Z,61.89
2023-01-18T13:48:30.255Z,61.98
2023-01-18T13:52:35.272Z,61.48
2023-01-18T13:56:39.216Z,61.50
2023-01-18T14:00:48.773Z,61.21
2023-01-18T14:05:09.603Z,61.24
2023-01-18T14:09:16.133Z,62.26
2023-01-18T14:13:19.430Z,62.53
2023-01-18T14:17:25.124Z,62.12
2023-01-18T14:21:40.100Z,62.18
2023-01-18T14:25:58.638Z,62.27
2023-01-18T14:30:06.819Z,62.24
2023-01-18T14:34:35.305Z,62.20
2023-01-18T14:38:41.189Z,63.20
2023-01-18T14:42:49.499Z,63.00
2023-01-18T14:46:54.337Z,62.92
2023-01-18T14:50:59.054Z,62.87
2023-01-18T14:55:04.361Z,62.95
2023-01-18T14:59:20.442Z,62.72
2023-01-18T15:03:26.292Z,63.33
2023-01-18T15:07:33.986Z,63.22
2023-01-18T15:11:40.204Z,63.64
2023-01-18T15:15:44.402Z,63.89
2023-01-18T15:19:49.441Z,63.94
2023-01-18T15:23:54.124Z,64.02
2023-01-18T15:28:06.593Z,64.10
2023-01-18T15:32:21.557Z,63.93
2023-01-18T15:36:24.583Z,64.13
2023-01-18T15:40:30.669Z,64.25
2023-01-18T15:44:47.565Z,64.31
2023-01-18T15:48:53.314Z,64.35
2023-01-18T15:53:06.323Z,64.41
2023-01-18T15:57:15.859Z,64.58
2023-01-18T16:01:24.891Z,64.71
2023-01-18T16:05:28.679Z,65.06
2023-01-18T16:09:32.492Z,64.89
2023-01-18T16:13:38.151Z,64.95
2023-01-18T16:17:45.253Z,64.99
2023-01-18T16:21:50.614Z,65.22
2023-01-18T16:26:00.610Z,65.50
2023-01-18T16:30:07.556Z,65.64
2023-01-18T16:34:24.403Z,65.66
2023-01-18T16:38:27.356Z,65.84
2023-01-18T16:42:58.560Z,66.38
2023-01-18T16:47:01.497Z,66.95
2023-01-18T16:51:15.661Z,67.39
2023-01-18T16:55:19.741Z,67.21
2023-01-18T16:59:23.428Z,67.37
2023-01-18T17:03:27.568Z,67.45
2023-01-18T17:07:32.207Z,67.58
2023-01-18T17:11:35.160Z,67.57
2023-01-18T17:15:41.451Z,67.76
2023-01-18T17:19:44.363Z,67.74
2023-01-18T17:23:48.601Z,67.83
2023-01-18T17:27:52.288Z,67.93
2023-01-18T17:31:55.301Z,67.99
2023-01-18T17:35:58.372Z,68.27
2023-01-18T17:40:16.467Z,68.36
2023-01-18T17:44:24.234Z,68.61
2023-01-18T17:48:30.139Z,68.90
2023-01-18T17:52:33.167Z,68.94
2023-01-18T17:56:37.764Z,69.22
2023-01-18T18:00:40.826Z,69.18
2023-01-18T18:04:43.829Z,69.49
2023-01-18T18:08:47.339Z,70.05
2023-01-18T18:12:51.824Z,70.18
2023-01-18T18:16:54.927Z,70.58
2023-01-18T18:20:58.619Z,70.52
2023-01-18T18:25:02.030Z,70.45
2023-01-18T18:29:06.567Z,70.87
2023-01-18T18:33:09.761Z,71.16
2023-01-18T18:37:15.127Z,71.06
2023-01-18T18:41:18.429Z,71.03
2023-01-18T18:45:24.516Z,71.05
2023-01-18T18:49:27.625Z,71.21
2023-01-18T18:53:38.241Z,71.37
2023-01-18T18:57:41.809Z,71.23
2023-01-18T19:01:46.249Z,71.35
2023-01-18T19:05:49.329Z,71.68
2023-01-18T19:09:52.557Z,71.70
2023-01-18T19:13:56.919Z,71.76
2023-01-18T19:18:16.781Z,71.78
2023-01-18T19:22:20.132Z,72.03
2023-01-18T19:26:23.155Z,72.14
2023-01-18T19:30:26.474Z,72.40
2023-01-18T19:34:31.000Z,72.54
2023-01-18T19:38:35.543Z,72.87
2023-01-18T19:42:44.631Z,72.82
2023-01-18T19:46:48.109Z,72.90
2023-01-18T19:50:53.041Z,73.09
2023-01-18T19:54:56.398Z,73.44
2023-01-18T19:58:59.715Z,73.85
2023-01-18T20:03:03.180Z,73.81
2023-01-18T20:07:08.091Z,73.82
2023-01-18T20:11:12.802Z,73.54
2023-01-18T20:15:17.349Z,73.54
2023-01-18T20:19:20.413Z,73.84
2023-01-18T20:23:25.118Z,73.46
2023-01-18T20:27:28.979Z,73.83
2023-01-18T20:31:33.051Z,73.74
2023-01-18T20:35:36.161Z,74.05
2023-01-18T20:39:40.882Z,73.67
2023-01-18T20:43:44.370Z,73.88
2023-01-18T20:47:47.469Z,73.79
2023-01-18T20:51:50.556Z,73.59
2023-01-18T20:55:55.325Z,74.07
2023-01-18T20:59:58.851Z,74.13
2023-01-18T21:04:04.506Z,73.96
2023-01-18T21:08:07.543Z,74.07
2023-01-18T21:12:11.920Z,74.53
2023-01-18T21:16:14.991Z,74.69
2023-01-18T21:20:18.147Z,74.82
2023-01-18T21:24:21.423Z,74.67
2023-01-18T21:28:26.980Z,74.88
2023-01-18T21:32:30.012Z,74.72
2023-01-18T21:36:33.005Z,74.92
2023-01-18T21:40:36.027Z,74.49
2023-01-18T21:44:58.478Z,74.74
2023-01-18T21:49:03.955Z,74.77
2023-01-18T21:53:27.814Z,74.86
2023-01-18T21:57:31.209Z,75.22
2023-01-18T22:01:39.333Z,75.34
2023-01-18T22:05:42.500Z,75.73
2023-01-18T22:09:59.053Z,75.68
2023-01-18T22:14:08.548Z,75.91
2023-01-18T22:18:12.915Z,75.55
2023-01-18T22:22:16.371Z,75.49
2023-01-18T22:26:20.407Z,75.56
2023-01-18T22:30:23.572Z,75.72
2023-01-18T22:34:28.472Z,75.41
2023-01-18T22:38:31.868Z,75.52
2023-01-18T22:42:35.452Z,75.12
2023-01-18T22:46:38.737Z,74.75
2023-01-18T22:50:43.152Z,74.66
2023-01-18T22:54:46.224Z,74.51
2023-01-18T22:58:49.893Z,74.24
2023-01-18T23:02:52.907Z,74.10
2023-01-18T23:07:00.806Z,73.43
2023-01-18T23:11:04.038Z,73.43
2023-01-18T23:15:25.409Z,72.93
2023-01-18T23:19:30.676Z,72.46
2023-01-18T23:23:35.285Z,72.04
2023-01-18T23:27:38.511Z,71.07
2023-01-18T23:31:42.581Z,71.38
2023-01-18T23:35:45.675Z,71.01
2023-01-18T23:40:07.804Z,70.32
2023-01-18T23:44:28.046Z,70.50
2023-01-18T23:48:49.019Z,70.28
2023-01-18T23:53:09.887Z,70.08
2023-01-18T23:57:15.029Z,69.79
